Time;durP1;ratioP1;P1;durP2;ratioP2;P2;SDS_P1;SDS_P2;PMS_P1;PMS_P2;Temp;Humidity;BMP_temperature;BMP_pressure;BME280_temperature;BME280_humidity;BME280_pressure;Samples;Min_cycle;Max_cycle;Signal;HPM_P1;HPM_P2
2021/11/27 00:01:34;;;;;;;22.55;15.13;;;5.50;99.90;;;;;;5059336;28;20032;-77
2021/11/27 00:04:01;;;;;;;25.00;16.25;;;5.50;99.90;;;;;;5053371;28;20034;-77
2021/11/27 00:06:31;;;;;;;23.85;16.13;;;5.50;99.90;;;;;;5067937;28;20032;-77
2021/11/27 00:09:00;;;;;;;23.90;17.13;;;5.50;99.90;;;;;;5039931;28;20482;-76
2021/11/27 00:11:27;;;;;;;23.50;15.23;;;5.40;99.90;;;;;;5071182;28;20031;-76
2021/11/27 00:13:54;;;;;;;22.98;15.60;;;5.40;99.90;;;;;;5067213;28;20039;-76
2021/11/27 00:16:21;;;;;;;22.55;14.88;;;5.40;99.90;;;;;;5071061;28;20372;-75
2021/11/27 00:18:47;;;;;;;23.38;15.75;;;5.40;99.90;;;;;;5069040;28;20383;-76
2021/11/27 00:21:16;;;;;;;22.70;14.88;;;5.40;99.90;;;;;;5041696;28;20042;-81
2021/11/27 00:23:43;;;;;;;21.27;14.80;;;5.40;99.90;;;;;;5064137;28;20399;-81
2021/11/27 00:26:13;;;;;;;20.98;13.98;;;5.30;99.90;;;;;;5054358;28;20046;-79
2021/11/27 00:28:39;;;;;;;23.52;15.02;;;5.40;99.90;;;;;;5058996;28;20479;-82
2021/11/27 00:31:10;;;;;;;23.98;15.30;;;5.30;99.90;;;;;;5056994;28;20407;-74
2021/11/27 00:33:40;;;;;;;25.33;16.13;;;5.30;99.90;;;;;;5070545;28;20040;-75
2021/11/27 00:36:09;;;;;;;22.88;15.80;;;5.30;99.90;;;;;;5071329;28;20277;-76
2021/11/27 00:38:35;;;;;;;22.90;14.45;;;5.20;99.90;;;;;;5085720;28;20032;-75
2021/11/27 00:41:03;;;;;;;24.38;15.88;;;5.20;99.90;;;;;;5050413;28;20036;-75
2021/11/27 00:43:31;;;;;;;22.02;13.95;;;5.20;99.90;;;;;;5049324;28;20690;-75
2021/11/27 00:45:57;;;;;;;21.20;13.82;;;5.10;99.90;;;;;;5036750;28;20032;-76
2021/11/27 00:48:25;;;;;;;24.45;15.38;;;5.10;99.90;;;;;;5041081;28;20032;-75
2021/11/27 00:51:06;;;;;;;18.83;13.35;;;5.10;99.90;;;;;;5058476;28;20039;-82
2021/11/27 00:53:34;;;;;;;21.33;13.68;;;5.10;99.90;;;;;;5069327;28;20036;-75
2021/11/27 00:56:01;;;;;;;22.17;12.55;;;5.10;99.90;;;;;;5051248;28;20027;-81
2021/11/27 00:58:28;;;;;;;22.20;13.18;;;5.10;99.90;;;;;;5065186;28;20474;-80
2021/11/27 01:01:03;;;;;;;23.50;13.80;;;5.00;99.90;;;;;;5040569;28;20510;-75
2021/11/27 01:03:32;;;;;;;20.17;12.50;;;5.10;99.90;;;;;;5070260;28;20042;-74
2021/11/27 01:06:03;;;;;;;20.38;12.90;;;5.00;99.90;;;;;;5036740;28;20035;-75
2021/11/27 01:08:31;;;;;;;20.90;13.18;;;5.00;99.90;;;;;;5075192;28;20028;-76
2021/11/27 01:11:03;;;;;;;20.15;12.75;;;5.00;99.90;;;;;;5070082;28;20028;-75
2021/11/27 01:13:31;;;;;;;18.88;11.50;;;5.00;99.90;;;;;;5071002;28;20027;-81
2021/11/27 01:15:59;;;;;;;16.40;10.80;;;5.00;99.90;;;;;;5078018;28;20219;-82
2021/11/27 01:18:26;;;;;;;19.05;10.95;;;5.00;99.90;;;;;;5090807;28;20031;-82
2021/11/27 01:20:57;;;;;;;17.67;10.52;;;5.00;99.90;;;;;;5056423;28;20036;-82
2021/11/27 01:23:25;;;;;;;19.02;11.18;;;5.00;99.90;;;;;;5070813;28;20039;-82
2021/11/27 01:25:52;;;;;;;22.60;13.50;;;5.00;99.90;;;;;;5061067;28;20028;-82
2021/11/27 01:28:22;;;;;;;23.95;14.38;;;5.00;99.90;;;;;;5063213;28;20042;-82
2021/11/27 01:30:52;;;;;;;23.23;13.10;;;5.00;99.90;;;;;;5043179;28;20043;-76
2021/11/27 01:33:19;;;;;;;27.38;15.63;;;5.00;99.90;;;;;;5063417;28;20043;-76
2021/11/27 01:35:47;;;;;;;27.70;15.63;;;5.00;99.90;;;;;;5041388;28;20036;-75
2021/11/27 01:38:14;;;;;;;25.73;15.48;;;5.00;99.90;;;;;;5080765;28;20032;-74
2021/11/27 01:40:41;;;;;;;25.95;15.25;;;5.00;99.90;;;;;;5056189;28;20036;-75
2021/11/27 01:43:09;;;;;;;23.02;13.63;;;5.00;99.90;;;;;;5064487;28;20044;-76
2021/11/27 01:45:36;;;;;;;22.73;12.75;;;4.90;99.90;;;;;;5061819;28;20039;-76
2021/11/27 01:48:06;;;;;;;17.85;10.95;;;5.00;99.90;;;;;;5078268;28;20039;-75
2021/11/27 01:50:37;;;;;;;22.48;11.50;;;4.90;99.90;;;;;;5064712;28;20036;-75
2021/11/27 01:53:04;;;;;;;20.17;12.60;;;4.90;99.90;;;;;;5068481;28;20393;-76
2021/11/27 01:55:33;;;;;;;20.40;10.73;;;4.90;99.90;;;;;;5048734;28;20052;-77
2021/11/27 01:58:00;;;;;;;19.67;10.85;;;4.90;99.90;;;;;;5080416;28;20024;-76
2021/11/27 02:00:30;;;;;;;21.45;10.73;;;4.90;99.90;;;;;;5067397;28;20032;-77
2021/11/27 02:02:57;;;;;;;19.95;10.40;;;4.90;99.90;;;;;;5066958;28;20028;-77
2021/11/27 02:05:35;;;;;;;21.13;9.68;;;4.90;99.90;;;;;;5064694;28;20025;-76
2021/11/27 02:08:02;;;;;;;16.27;8.43;;;4.90;99.90;;;;;;5039733;28;20028;-77
2021/11/27 02:10:30;;;;;;;17.10;9.45;;;4.90;99.90;;;;;;5049892;28;20039;-77
2021/11/27 02:12:57;;;;;;;18.95;9.13;;;4.90;99.90;;;;;;5057141;28;20364;-76
2021/11/27 02:15:23;;;;;;;15.00;8.27;;;4.90;99.90;;;;;;5045647;28;20032;-78
2021/11/27 02:17:54;;;;;;;14.07;7.75;;;4.80;99.90;;;;;;5046682;28;20120;-77
2021/11/27 02:20:22;;;;;;;15.80;8.70;;;4.80;99.90;;;;;;5068620;28;20536;-84
2021/11/27 02:22:49;;;;;;;13.68;7.40;;;4.70;99.90;;;;;;5064725;28;20036;-83
2021/11/27 02:25:19;;;;;;;13.60;8.23;;;4.70;99.90;;;;;;5050656;28;20047;-84
2021/11/27 02:27:49;;;;;;;14.45;9.02;;;4.70;99.90;;;;;;5076011;28;20472;-84
2021/11/27 02:30:19;;;;;;;11.65;7.38;;;4.70;99.90;;;;;;5080957;28;20047;-82
2021/11/27 02:32:46;;;;;;;10.23;6.72;;;4.60;99.90;;;;;;5078726;28;20046;-83
2021/11/27 02:35:14;;;;;;;12.85;6.65;;;4.60;99.90;;;;;;5042440;28;20052;-84
2021/11/27 02:37:41;;;;;;;9.02;5.40;;;4.50;99.90;;;;;;5041160;28;20348;-83
2021/11/27 02:40:09;;;;;;;8.32;4.78;;;4.40;99.90;;;;;;5038201;28;20032;-84
2021/11/27 02:42:36;;;;;;;8.32;3.80;;;4.40;99.90;;;;;;5060299;28;20055;-82
2021/11/27 02:45:05;;;;;;;6.53;3.50;;;4.40;99.90;;;;;;5071251;28;20043;-83
2021/11/27 02:47:32;;;;;;;3.70;2.38;;;4.30;99.90;;;;;;5070978;28;20093;-82
2021/11/27 02:50:01;;;;;;;4.20;2.20;;;4.30;99.90;;;;;;5052050;28;20418;-83
2021/11/27 02:52:34;;;;;;;2.33;2.10;;;4.20;99.90;;;;;;5038660;28;20043;-82
2021/11/27 02:55:03;;;;;;;3.13;1.52;;;4.20;99.90;;;;;;5055986;28;20028;-84
2021/11/27 02:57:30;;;;;;;3.58;1.05;;;4.20;99.90;;;;;;5068618;28;20044;-83
2021/11/27 02:59:58;;;;;;;2.67;1.25;;;4.20;99.90;;;;;;5060225;28;20396;-83
2021/11/27 03:02:33;;;;;;;2.63;1.67;;;4.20;99.90;;;;;;5015464;28;20375;-83
2021/11/27 03:05:00;;;;;;;2.22;1.10;;;4.20;99.90;;;;;;5060778;28;20036;-80
2021/11/27 03:07:26;;;;;;;2.53;1.33;;;4.20;99.90;;;;;;5046170;28;20036;-79
2021/11/27 03:09:53;;;;;;;3.58;0.85;;;4.20;99.90;;;;;;5035409;28;20046;-79
2021/11/27 03:12:20;;;;;;;3.70;1.20;;;4.10;99.90;;;;;;5064621;28;20048;-79
2021/11/27 03:14:47;;;;;;;4.05;0.73;;;4.10;99.90;;;;;;5039410;28;20036;-79
2021/11/27 03:17:14;;;;;;;5.13;1.48;;;4.10;99.90;;;;;;5051955;28;20435;-79
2021/11/27 03:19:43;;;;;;;4.50;1.15;;;4.10;99.90;;;;;;5057395;28;20401;-79
2021/11/27 03:22:12;;;;;;;3.67;1.10;;;4.10;99.90;;;;;;5074056;28;20041;-79
2021/11/27 03:24:39;;;;;;;3.30;0.90;;;4.10;99.90;;;;;;5061319;28;20036;-78
2021/11/27 03:27:07;;;;;;;2.35;1.00;;;4.10;99.90;;;;;;5058321;28;20036;-78
2021/11/27 03:29:35;;;;;;;2.60;0.98;;;4.10;99.90;;;;;;5066015;28;20028;-78
2021/11/27 03:32:16;;;;;;;4.05;0.85;;;4.10;99.90;;;;;;5046964;28;20518;-78
2021/11/27 03:34:50;;;;;;;1.50;0.88;;;4.10;99.90;;;;;;5080644;28;20036;-78
2021/11/27 03:37:18;;;;;;;3.28;0.73;;;4.10;99.90;;;;;;5060237;28;20529;-78
2021/11/27 03:39:46;;;;;;;2.67;0.80;;;4.10;99.90;;;;;;5054720;28;20035;-78
2021/11/27 03:42:15;;;;;;;3.90;0.93;;;4.00;99.90;;;;;;5044430;28;20040;-78
2021/11/27 03:44:43;;;;;;;2.67;0.88;;;4.00;99.90;;;;;;5047326;28;20031;-78
2021/11/27 03:47:10;;;;;;;1.70;0.77;;;3.90;99.90;;;;;;5049071;28;20855;-78
2021/11/27 03:49:37;;;;;;;4.88;1.20;;;3.90;99.90;;;;;;5049016;28;20025;-79
2021/11/27 03:52:04;;;;;;;3.20;1.23;;;3.90;99.90;;;;;;5023960;28;20399;-78
2021/11/27 03:54:37;;;;;;;1.75;0.70;;;3.90;99.90;;;;;;5074550;28;20471;-78
2021/11/27 03:57:04;;;;;;;2.17;1.05;;;3.80;99.90;;;;;;5056442;28;20044;-79
2021/11/27 03:59:30;;;;;;;4.87;1.10;;;3.80;99.90;;;;;;5046537;28;20044;-78
2021/11/27 04:01:57;;;;;;;2.67;0.90;;;3.80;99.90;;;;;;5029997;28;20032;-78
2021/11/27 04:04:24;;;;;;;1.58;0.63;;;3.70;99.90;;;;;;5030020;28;20388;-78
2021/11/27 04:06:51;;;;;;;1.73;0.80;;;3.70;99.90;;;;;;5065086;28;20051;-77
2021/11/27 04:09:17;;;;;;;2.33;1.08;;;3.60;99.90;;;;;;5063578;28;20032;-78
2021/11/27 04:11:44;;;;;;;5.93;1.20;;;3.60;99.90;;;;;;5050151;28;20046;-78
2021/11/27 04:14:20;;;;;;;2.72;0.93;;;3.60;99.90;;;;;;5060634;28;20047;-77
2021/11/27 04:16:52;;;;;;;3.17;0.80;;;3.60;99.90;;;;;;5038687;28;20349;-78
2021/11/27 04:19:20;;;;;;;3.30;1.40;;;3.50;99.90;;;;;;5040265;28;20041;-78
2021/11/27 04:21:46;;;;;;;4.00;1.10;;;3.50;99.90;;;;;;5073354;28;20038;-78
2021/11/27 04:24:12;;;;;;;2.95;1.27;;;3.50;99.90;;;;;;5036328;28;20388;-78
2021/11/27 04:26:39;;;;;;;2.03;1.10;;;3.50;99.90;;;;;;5061257;28;20035;-78
2021/11/27 04:29:05;;;;;;;2.35;1.20;;;3.50;99.90;;;;;;5062302;28;20024;-78
2021/11/27 04:31:32;;;;;;;1.90;1.40;;;3.40;99.90;;;;;;5035566;28;20048;-78
2021/11/27 04:34:00;;;;;;;1.60;0.90;;;3.40;99.90;;;;;;5039970;28;20058;-78
2021/11/27 04:36:27;;;;;;;1.70;0.98;;;3.40;99.90;;;;;;5033739;28;20032;-78
2021/11/27 04:38:53;;;;;;;1.50;1.00;;;3.40;99.90;;;;;;5030091;28;20095;-78
2021/11/27 04:41:20;;;;;;;2.17;0.90;;;3.40;99.90;;;;;;5064541;28;20043;-78
2021/11/27 04:43:49;;;;;;;1.40;0.88;;;3.40;99.90;;;;;;5061433;28;20039;-78
2021/11/27 04:46:15;;;;;;;2.75;1.08;;;3.40;99.90;;;;;;5031856;28;20394;-78
2021/11/27 04:48:42;;;;;;;2.43;1.10;;;3.30;99.90;;;;;;5068015;28;20043;-78
2021/11/27 04:51:08;;;;;;;2.40;1.20;;;3.30;99.90;;;;;;5049749;28;20126;-78
2021/11/27 04:53:35;;;;;;;2.37;1.00;;;3.30;99.90;;;;;;5040404;28;20497;-78
2021/11/27 04:56:01;;;;;;;1.67;0.87;;;3.30;99.90;;;;;;5048856;28;20036;-78
2021/11/27 04:58:29;;;;;;;1.90;1.00;;;3.20;99.90;;;;;;5067061;28;20032;-78
2021/11/27 05:01:00;;;;;;;2.07;0.97;;;3.20;99.90;;;;;;5048274;28;20036;-78
2021/11/27 05:03:58;;;;;;;2.28;1.23;;;3.20;99.90;;;;;;5072753;28;20046;-78
2021/11/27 05:06:25;;;;;;;2.70;1.20;;;3.10;99.90;;;;;;5074512;28;20449;-78
2021/11/27 05:08:53;;;;;;;2.40;1.10;;;3.10;99.90;;;;;;4999403;28;20049;-78
2021/11/27 05:11:20;;;;;;;1.57;0.90;;;3.10;99.90;;;;;;5006627;28;20500;-78
2021/11/27 05:13:50;;;;;;;2.00;1.00;;;3.10;99.90;;;;;;4994551;28;20060;-78
2021/11/27 05:16:17;;;;;;;1.90;0.97;;;3.00;99.90;;;;;;5034850;28;20024;-78
2021/11/27 05:18:44;;;;;;;3.45;1.33;;;3.10;99.90;;;;;;5019842;28;20063;-78
2021/11/27 05:21:43;;;;;;;2.65;1.10;;;3.10;99.90;;;;;;5011092;28;20401;-78
2021/11/27 05:24:10;;;;;;;1.88;0.75;;;3.10;99.90;;;;;;5002396;28;20045;-78
2021/11/27 05:26:57;;;;;;;1.53;0.60;;;3.00;99.90;;;;;;5001745;28;20033;-78
2021/11/27 05:29:53;;;;;;;2.35;0.85;;;3.00;99.90;;;;;;5036817;28;20045;-78
2021/11/27 05:35:28;;;;;;;3.03;0.70;;;3.10;99.90;;;;;;5021040;28;20033;-78
2021/11/27 05:37:54;;;;;;;2.93;0.90;;;3.10;99.90;;;;;;5032846;28;20033;-78
2021/11/27 05:40:22;;;;;;;1.80;0.80;;;3.10;99.90;;;;;;5057458;28;20410;-78
2021/11/27 05:42:49;;;;;;;1.37;0.83;;;3.10;99.90;;;;;;5048360;28;20383;-78
2021/11/27 05:45:15;;;;;;;2.40;0.60;;;3.00;99.90;;;;;;5064992;28;20043;-78
2021/11/27 05:47:44;;;;;;;4.57;0.90;;;3.00;99.90;;;;;;5032404;28;20043;-79
2021/11/27 05:50:15;;;;;;;2.70;0.90;;;3.00;99.90;;;;;;5039919;28;20043;-78
2021/11/27 05:52:41;;;;;;;1.93;0.73;;;3.00;99.90;;;;;;5054251;28;20047;-78
2021/11/27 05:55:09;;;;;;;2.47;0.80;;;3.00;99.90;;;;;;5043904;28;20058;-78
2021/11/27 05:57:35;;;;;;;1.80;0.70;;;2.90;99.90;;;;;;5053775;28;20040;-78
2021/11/27 06:00:04;;;;;;;3.27;0.67;;;2.90;99.90;;;;;;5054823;28;20039;-78
2021/11/27 06:02:39;;;;;;;2.05;0.82;;;2.90;99.90;;;;;;5077326;28;20019;-78
2021/11/27 06:05:06;;;;;;;3.20;0.50;;;2.80;99.90;;;;;;5040683;28;20036;-78
2021/11/27 06:07:32;;;;;;;2.97;0.93;;;2.90;99.90;;;;;;5036569;28;20047;-78
2021/11/27 06:09:59;;;;;;;1.17;0.50;;;2.80;99.90;;;;;;5049337;28;20062;-78
2021/11/27 06:12:25;;;;;;;1.53;0.70;;;2.80;99.90;;;;;;5027338;28;20379;-78
2021/11/27 06:14:52;;;;;;;3.00;0.70;;;2.80;99.90;;;;;;5026606;28;20039;-78
2021/11/27 06:17:18;;;;;;;1.50;0.63;;;2.80;99.90;;;;;;5059037;28;20050;-78
2021/11/27 06:19:47;;;;;;;2.63;1.13;;;2.90;99.90;;;;;;5023839;28;20042;-78
2021/11/27 06:22:13;;;;;;;2.40;0.90;;;2.90;99.90;;;;;;5026571;28;20483;-78
2021/11/27 06:24:40;;;;;;;1.40;0.97;;;2.80;99.90;;;;;;5033378;28;20043;-78
2021/11/27 06:27:06;;;;;;;1.93;0.87;;;2.80;99.90;;;;;;5054060;28;20044;-78
2021/11/27 06:29:33;;;;;;;3.33;0.90;;;2.80;99.90;;;;;;5041448;28;20043;-78
2021/11/27 06:32:08;;;;;;;1.67;1.07;;;2.80;99.90;;;;;;5039314;28;20055;-78
2021/11/27 06:34:36;;;;;;;1.60;0.90;;;2.90;99.90;;;;;;5036953;28;20048;-78
2021/11/27 06:37:02;;;;;;;1.90;1.30;;;2.90;99.90;;;;;;5041612;28;20032;-79
2021/11/27 06:39:29;;;;;;;2.43;1.57;;;2.90;99.90;;;;;;5049351;28;20048;-78
2021/11/27 06:41:56;;;;;;;1.90;1.20;;;2.90;99.90;;;;;;5024938;28;20040;-78
2021/11/27 06:44:34;;;;;;;3.73;1.00;;;2.80;99.90;;;;;;5026442;28;20043;-78
2021/11/27 06:47:00;;;;;;;2.03;0.93;;;2.80;99.90;;;;;;5044194;28;20036;-78
2021/11/27 06:49:27;;;;;;;3.13;1.50;;;2.80;99.90;;;;;;5024447;28;20040;-78
2021/11/27 06:51:54;;;;;;;2.43;1.10;;;2.80;99.90;;;;;;5026884;28;20491;-79
2021/11/27 06:54:21;;;;;;;2.67;1.30;;;2.80;99.90;;;;;;5054499;28;20036;-76
2021/11/27 06:56:47;;;;;;;2.77;1.20;;;2.80;99.90;;;;;;5056512;28;20029;-77
2021/11/27 06:59:14;;;;;;;2.13;1.60;;;2.80;99.90;;;;;;5010289;28;20044;-77
2021/11/27 07:01:58;;;;;;;3.73;1.90;;;2.70;99.90;;;;;;5055748;28;20040;-77
2021/11/27 07:05:03;;;;;;;2.17;1.43;;;2.70;99.90;;;;;;4981465;28;20609;-76
2021/11/27 07:07:46;;;;;;;3.37;1.63;;;2.70;99.90;;;;;;5053120;28;20500;-77
2021/11/27 07:10:33;;;;;;;2.17;1.40;;;2.60;99.90;;;;;;5044728;28;20510;-78
2021/11/27 07:13:23;;;;;;;3.60;2.17;;;2.60;99.90;;;;;;5040267;28;20048;-78
2021/11/27 07:15:55;;;;;;;4.80;2.22;;;2.60;99.90;;;;;;5040573;28;20035;-78
2021/11/27 07:18:21;;;;;;;4.20;2.47;;;2.60;99.90;;;;;;5079649;28;20054;-80
2021/11/27 07:20:47;;;;;;;3.57;2.30;;;2.60;99.90;;;;;;5039350;28;20479;-81
2021/11/27 07:23:14;;;;;;;2.30;1.47;;;2.60;99.90;;;;;;5019852;28;20041;-80
2021/11/27 07:25:40;;;;;;;3.63;1.87;;;2.60;99.90;;;;;;5039227;28;20051;-83
2021/11/27 07:28:41;;;;;;;4.07;1.83;;;2.50;99.90;;;;;;5087212;28;20043;-84
2021/11/27 07:31:08;;;;;;;3.65;2.35;;;2.60;99.90;;;;;;5030888;28;20037;-84
2021/11/27 07:33:35;;;;;;;3.90;2.70;;;2.50;99.90;;;;;;5020180;28;20060;-83
2021/11/27 07:36:01;;;;;;;3.13;2.20;;;2.50;99.90;;;;;;5036778;28;20031;-78
2021/11/27 07:38:28;;;;;;;3.17;2.20;;;2.50;99.90;;;;;;5024366;28;20037;-77
2021/11/27 07:40:54;;;;;;;2.90;1.70;;;2.50;99.90;;;;;;5053757;28;20043;-79
2021/11/27 07:43:21;;;;;;;2.43;1.47;;;2.40;99.90;;;;;;5046763;28;20045;-78
2021/11/27 07:46:15;;;;;;;3.13;2.13;;;2.50;99.90;;;;;;5059986;28;20040;-78
2021/11/27 07:48:59;;;;;;;3.07;2.17;;;2.40;99.90;;;;;;5052680;28;20039;-79
2021/11/27 07:51:44;;;;;;;3.10;1.90;;;2.40;99.90;;;;;;5075283;28;20036;-82
2021/11/27 07:54:10;;;;;;;3.50;2.27;;;2.30;99.90;;;;;;5039225;28;20379;-83
2021/11/27 07:56:38;;;;;;;2.80;2.23;;;2.30;99.90;;;;;;5028280;28;20047;-78
2021/11/27 07:59:05;;;;;;;3.50;2.57;;;2.30;99.90;;;;;;5047015;28;20478;-82
2021/11/27 08:01:33;;;;;;;2.97;2.40;;;2.30;99.90;;;;;;5028610;28;20044;-82
2021/11/27 08:04:00;;;;;;;3.57;2.30;;;2.30;99.90;;;;;;5056525;28;20036;-79
2021/11/27 08:06:26;;;;;;;4.17;2.70;;;2.30;99.90;;;;;;5042173;28;20515;-83
2021/11/27 08:08:53;;;;;;;3.73;2.40;;;2.20;99.90;;;;;;5040342;28;20040;-83
2021/11/27 08:11:21;;;;;;;3.93;2.43;;;2.20;99.90;;;;;;5032100;28;20043;-79
2021/11/27 08:13:48;;;;;;;4.17;2.77;;;2.20;99.90;;;;;;5061079;28;20062;-79
2021/11/27 08:16:16;;;;;;;3.37;2.63;;;2.20;99.90;;;;;;5043558;28;20041;-79
2021/11/27 08:18:43;;;;;;;4.80;2.77;;;2.20;99.90;;;;;;5018502;28;20045;-79
2021/11/27 08:21:10;;;;;;;4.70;2.17;;;2.20;99.90;;;;;;4998799;28;20063;-79
2021/11/27 08:23:37;;;;;;;4.13;2.40;;;2.20;99.90;;;;;;5023554;28;20044;-85
2021/11/27 08:26:35;;;;;;;4.80;3.27;;;2.30;99.90;;;;;;5046542;28;20136;-86
2021/11/27 08:29:04;;;;;;;4.33;2.77;;;2.20;99.90;;;;;;5000348;28;20037;-84
2021/11/27 08:31:30;;;;;;;4.20;2.57;;;2.30;99.90;;;;;;5027708;28;20072;-85
2021/11/27 08:33:57;;;;;;;6.00;3.17;;;2.30;99.90;;;;;;5016285;28;20037;-85
2021/11/27 08:36:23;;;;;;;3.83;2.60;;;2.30;99.90;;;;;;5051395;28;20040;-84
2021/11/27 08:38:50;;;;;;;4.33;2.70;;;2.30;99.90;;;;;;5041596;28;20915;-85
2021/11/27 08:41:16;;;;;;;5.97;3.10;;;2.30;99.90;;;;;;5050414;28;20048;-78
2021/11/27 08:43:42;;;;;;;4.97;2.40;;;2.40;99.90;;;;;;5014883;28;20049;-78
2021/11/27 08:46:09;;;;;;;4.50;3.03;;;2.40;99.90;;;;;;5019727;28;20550;-78
2021/11/27 08:48:37;;;;;;;4.67;3.57;;;2.40;99.90;;;;;;5020022;28;20048;-78
2021/11/27 08:51:10;;;;;;;4.57;3.27;;;2.40;99.90;;;;;;5053317;28;20028;-78
2021/11/27 08:53:37;;;;;;;5.17;3.27;;;2.40;99.90;;;;;;5058952;28;20591;-78
2021/11/27 08:56:06;;;;;;;5.60;3.13;;;2.40;99.90;;;;;;5040838;28;20506;-78
2021/11/27 08:58:35;;;;;;;4.37;2.70;;;2.50;99.90;;;;;;5052354;28;20047;-78
2021/11/27 09:01:02;;;;;;;5.20;3.67;;;2.50;99.90;;;;;;5036644;28;20036;-79
2021/11/27 09:03:29;;;;;;;4.73;3.13;;;2.50;99.90;;;;;;5021683;28;20047;-85
2021/11/27 09:05:55;;;;;;;6.53;4.47;;;2.50;99.90;;;;;;5044418;28;20028;-86
2021/11/27 09:08:22;;;;;;;4.80;3.33;;;2.60;99.90;;;;;;5022348;28;20044;-79
2021/11/27 09:10:49;;;;;;;6.70;4.33;;;2.60;99.90;;;;;;5049465;28;20111;-86
2021/11/27 09:13:15;;;;;;;6.07;3.80;;;2.60;99.90;;;;;;5026566;28;20037;-79
2021/11/27 09:15:42;;;;;;;5.23;2.93;;;2.60;99.90;;;;;;5051425;28;20051;-79
2021/11/27 09:18:10;;;;;;;5.30;3.63;;;2.60;99.90;;;;;;5012369;28;20044;-79
2021/11/27 09:20:37;;;;;;;6.10;3.97;;;2.60;99.90;;;;;;5019355;28;20028;-79
2021/11/27 09:23:04;;;;;;;4.80;3.30;;;2.60;99.90;;;;;;5034060;28;20031;-79
2021/11/27 09:25:31;;;;;;;6.37;3.97;;;2.70;99.90;;;;;;5041798;28;20040;-79
2021/11/27 09:27:58;;;;;;;5.00;3.93;;;2.60;99.90;;;;;;5046913;28;20036;-79
2021/11/27 09:30:28;;;;;;;6.33;3.70;;;2.60;99.90;;;;;;5039691;28;20041;-79
2021/11/27 09:32:55;;;;;;;4.43;3.50;;;2.70;99.90;;;;;;5070301;28;20399;-79
2021/11/27 09:35:22;;;;;;;6.10;3.93;;;2.60;99.90;;;;;;5035060;28;20054;-79
2021/11/27 09:37:49;;;;;;;6.63;3.83;;;2.60;99.90;;;;;;5042309;28;20029;-79
2021/11/27 09:40:17;;;;;;;5.27;3.17;;;2.60;99.90;;;;;;5070341;28;20036;-85
2021/11/27 09:42:49;;;;;;;5.13;3.80;;;2.70;99.90;;;;;;5054353;28;20048;-85
2021/11/27 09:45:16;;;;;;;6.18;3.80;;;2.70;99.90;;;;;;5036786;28;20047;-85
2021/11/27 09:47:45;;;;;;;4.57;3.27;;;2.70;99.90;;;;;;5040132;28;20036;-85
2021/11/27 09:50:11;;;;;;;6.33;4.37;;;2.70;99.90;;;;;;5036882;28;20487;-85
2021/11/27 09:52:38;;;;;;;5.13;3.27;;;2.80;99.90;;;;;;5028849;28;20059;-85
2021/11/27 09:55:05;;;;;;;6.97;4.50;;;2.80;99.90;;;;;;5035764;28;20037;-85
2021/11/27 09:57:32;;;;;;;3.83;2.50;;;2.90;99.90;;;;;;5049286;28;20051;-84
2021/11/27 09:59:58;;;;;;;6.03;3.53;;;3.00;99.90;;;;;;5046735;28;20035;-85
2021/11/27 10:02:25;;;;;;;3.87;2.70;;;3.10;99.90;;;;;;5027914;28;20036;-83
2021/11/27 10:04:54;;;;;;;4.73;3.43;;;3.20;99.90;;;;;;5043909;28;20036;-83
2021/11/27 10:07:22;;;;;;;6.90;4.03;;;3.20;99.90;;;;;;5037430;28;20055;-84
2021/11/27 10:09:51;;;;;;;6.47;4.18;;;3.30;99.90;;;;;;5051897;28;20036;-88
2021/11/27 10:12:22;;;;;;;5.63;3.53;;;3.40;99.90;;;;;;5043519;28;20479;-79
2021/11/27 10:14:48;;;;;;;5.00;3.70;;;3.40;99.90;;;;;;5034755;28;20036;-89
2021/11/27 10:17:22;;;;;;;6.13;3.70;;;3.50;99.90;;;;;;5039708;28;20510;-86
2021/11/27 10:19:52;;;;;;;4.33;3.17;;;3.50;99.90;;;;;;5063991;28;20028;-76
2021/11/27 10:22:47;;;;;;;5.38;4.00;;;3.50;99.90;;;;;;5082268;28;20028;-76
2021/11/27 10:25:27;;;;;;;7.15;3.80;;;3.60;99.90;;;;;;5057224;28;20055;-76
2021/11/27 10:28:05;;;;;;;4.28;2.97;;;3.60;99.90;;;;;;5063771;28;20035;-76
2021/11/27 10:30:59;;;;;;;4.73;3.00;;;3.60;99.90;;;;;;5062709;28;20497;-76
2021/11/27 10:33:27;;;;;;;4.68;3.17;;;3.60;99.90;;;;;;5058986;28;20044;-75
2021/11/27 10:36:04;;;;;;;4.27;3.70;;;3.60;99.90;;;;;;5076751;28;20361;-75
2021/11/27 10:38:42;;;;;;;7.60;3.80;;;3.70;99.90;;;;;;5063569;28;20039;-75
2021/11/27 10:41:11;;;;;;;8.25;3.97;;;3.70;99.90;;;;;;5061869;28;20036;-75
2021/11/27 10:44:03;;;;;;;4.10;3.20;;;3.70;99.90;;;;;;5059928;28;20044;-75
2021/11/27 10:46:32;;;;;;;4.10;2.63;;;3.70;99.90;;;;;;5048853;28;20406;-76
2021/11/27 10:48:59;;;;;;;5.05;2.78;;;3.60;99.90;;;;;;5081330;28;20027;-81
2021/11/27 10:51:26;;;;;;;6.47;2.90;;;3.60;99.90;;;;;;5053594;28;20031;-82
2021/11/27 10:53:59;;;;;;;6.60;3.63;;;3.60;99.90;;;;;;5065435;28;20086;-79
2021/11/27 10:56:45;;;;;;;6.53;3.78;;;3.70;99.90;;;;;;5060285;28;20395;-78
2021/11/27 10:59:13;;;;;;;10.15;3.90;;;3.70;99.90;;;;;;5068842;28;20597;-80
2021/11/27 11:02:00;;;;;;;8.37;4.30;;;3.70;99.90;;;;;;5033809;28;20040;-79
2021/11/27 11:04:29;;;;;;;9.55;5.40;;;3.70;99.90;;;;;;5034581;28;20048;-79
2021/11/27 11:07:27;;;;;;;8.97;3.77;;;3.70;99.90;;;;;;5026886;28;20044;-79
2021/11/27 11:10:18;;;;;;;9.88;5.03;;;3.80;99.90;;;;;;5051481;28;20041;-80
2021/11/27 11:13:05;;;;;;;9.32;4.85;;;3.90;99.90;;;;;;5039198;28;20037;-80
2021/11/27 11:15:46;;;;;;;13.65;6.60;;;4.00;99.90;;;;;;5059535;28;20032;-80
2021/11/27 11:18:53;;;;;;;;;;;;;;;;;;;;;
2021/11/27 11:22:29;;;;;;;18.88;9.23;;;4.20;99.90;;;;;;5051178;28;20039;-81
2021/11/27 11:25:19;;;;;;;17.05;9.65;;;4.30;99.90;;;;;;5041812;28;20052;-79
2021/11/27 11:27:58;;;;;;;21.00;10.13;;;4.40;99.90;;;;;;5099003;28;20035;-79
2021/11/27 11:30:36;;;;;;;26.80;11.95;;;4.50;99.90;;;;;;5069464;28;20055;-78
2021/11/27 11:33:05;;;;;;;29.58;13.20;;;4.60;99.90;;;;;;5090586;28;20048;-77
2021/11/27 11:35:33;;;;;;;35.80;15.13;;;4.60;99.90;;;;;;5065600;28;20028;-76
2021/11/27 11:38:00;;;;;;;37.97;18.08;;;4.70;99.90;;;;;;5039978;28;20059;-76
2021/11/27 11:40:29;;;;;;;39.13;17.55;;;4.70;99.90;;;;;;5066786;28;20043;-78
2021/11/27 11:42:56;;;;;;;68.00;24.25;;;4.70;99.90;;;;;;5088675;28;20024;-77
2021/11/27 11:45:22;;;;;;;46.78;21.70;;;4.70;99.90;;;;;;5064917;28;20032;-77
2021/11/27 11:47:49;;;;;;;41.17;19.48;;;4.80;99.90;;;;;;5069458;28;20032;-78
2021/11/27 11:50:20;;;;;;;52.40;23.65;;;4.90;99.90;;;;;;5087350;28;20032;-78
2021/11/27 11:53:08;;;;;;;46.83;20.30;;;5.00;99.90;;;;;;5046478;28;20025;-78
2021/11/27 11:55:37;;;;;;;38.05;17.38;;;5.10;99.90;;;;;;5087498;28;20039;-78
2021/11/27 11:58:04;;;;;;;44.97;20.55;;;5.20;99.90;;;;;;5055324;28;20497;-78
2021/11/27 12:00:37;;;;;;;50.33;23.48;;;5.30;99.90;;;;;;5056369;28;20033;-79
2021/11/27 12:03:12;;;;;;;47.72;21.77;;;5.40;99.90;;;;;;5084651;28;20032;-79
2021/11/27 12:05:54;;;;;;;46.50;20.77;;;5.50;99.90;;;;;;5049254;28;20032;-78
2021/11/27 12:08:48;;;;;;;48.50;20.65;;;5.70;99.90;;;;;;5082867;28;20029;-79
2021/11/27 12:11:46;;;;;;;44.28;19.98;;;5.70;99.90;;;;;;5073910;28;20095;-80
2021/11/27 12:14:19;;;;;;;43.58;22.13;;;5.80;99.90;;;;;;5054543;28;20998;-78
2021/11/27 12:17:06;;;;;;;40.70;20.15;;;5.90;99.90;;;;;;5045104;28;20028;-77
2021/11/27 12:19:57;;;;;;;44.95;19.15;;;5.90;99.90;;;;;;5051966;28;20391;-77
2021/11/27 12:22:23;;;;;;;43.33;19.52;;;6.00;99.90;;;;;;5086075;28;20032;-76
2021/11/27 12:25:26;;;;;;;36.85;16.40;;;6.00;99.90;;;;;;5084911;28;20051;-78
2021/11/27 12:28:07;;;;;;;41.63;18.45;;;6.00;99.90;;;;;;5016385;28;20048;-78
2021/11/27 12:30:39;;;;;;;40.17;18.42;;;6.10;99.90;;;;;;5091597;28;20039;-78
2021/11/27 12:33:06;;;;;;;36.60;18.02;;;6.20;99.90;;;;;;5088285;28;20048;-83
2021/11/27 12:35:33;;;;;;;34.72;18.45;;;6.20;99.90;;;;;;5062645;28;20036;-77
2021/11/27 12:38:11;;;;;;;47.92;18.98;;;6.30;99.90;;;;;;5063915;28;20107;-77
2021/11/27 12:40:41;;;;;;;36.50;19.25;;;6.30;99.90;;;;;;5083494;28;20124;-78
2021/11/27 12:43:16;;;;;;;42.97;17.73;;;6.30;99.90;;;;;;5064142;28;20024;-77
2021/11/27 12:45:46;;;;;;;34.80;17.33;;;6.30;99.90;;;;;;5066062;28;20032;-77
2021/11/27 12:48:35;;;;;;;38.22;17.23;;;6.20;99.90;;;;;;5062469;28;20055;-77
2021/11/27 12:51:18;;;;;;;35.55;15.23;;;6.20;99.90;;;;;;5070442;28;20043;-77
2021/11/27 12:54:04;;;;;;;;;;;6.10;99.90;;;;;;5086053;28;20063;-80
2021/11/27 12:56:57;;;;;;;35.92;16.65;;;6.10;99.90;;;;;;5044896;28;19920;-81
2021/11/27 12:59:26;;;;;;;28.95;14.88;;;6.00;99.90;;;;;;5050974;28;20422;-81
2021/11/27 13:01:53;;;;;;;28.52;13.70;;;5.90;99.90;;;;;;5055211;28;20024;-80
2021/11/27 13:04:20;;;;;;;26.73;13.15;;;5.80;99.90;;;;;;5061550;28;20029;-79
2021/11/27 13:06:49;;;;;;;23.67;12.07;;;5.80;99.90;;;;;;5032687;28;20028;-79
2021/11/27 13:09:17;;;;;;;26.98;13.02;;;5.70;99.90;;;;;;5027487;28;20049;-79
2021/11/27 13:11:50;;;;;;;31.35;13.27;;;5.70;99.90;;;;;;5045436;28;20037;-79
2021/11/27 13:14:31;;;;;;;26.00;13.05;;;5.70;99.90;;;;;;5083164;28;20059;-79
2021/11/27 13:17:10;;;;;;;26.70;11.75;;;5.70;99.90;;;;;;5054813;28;20040;-78